Time;durP1;ratioP1;P1;durP2;ratioP2;P2;SDS_P1;SDS_P2;PMS_P1;PMS_P2;Temp;Humidity;BMP_temperature;BMP_pressure;BME280_temperature;BME280_humidity;BME280_pressure;Samples;Min_cycle;Max_cycle;Signal;HPM_P1;HPM_P2
2022/02/26 00:01:46;;;;;;;12.13;3.60;;;;;;;;;;5016803;28;20408;-79
2022/02/26 00:04:13;;;;;;;5.90;2.27;;;;;;;;;;5001532;28;20432;-79
2022/02/26 00:06:39;;;;;;;6.33;2.60;;;;;;;;;;5016510;28;20433;-79
2022/02/26 00:09:05;;;;;;;5.00;2.57;;;;;;;;;;5019034;28;20488;-78
2022/02/26 00:11:31;;;;;;;7.60;2.60;;;;;;;;;;5004025;28;20404;-78
2022/02/26 00:13:57;;;;;;;9.37;2.63;;;;;;;;;;5000320;28;20451;-79
2022/02/26 00:16:23;;;;;;;6.30;3.80;;;;;;;;;;5000190;28;20428;-79
2022/02/26 00:18:49;;;;;;;8.40;2.83;;;;;;;;;;5000249;28;20432;-79
2022/02/26 00:21:16;;;;;;;7.07;2.60;;;;;;;;;;5015409;28;20427;-79
2022/02/26 00:23:43;;;;;;;4.63;2.00;;;;;;;;;;5002638;28;20408;-78
2022/02/26 00:26:09;;;;;;;5.87;2.33;;;;;;;;;;5016858;28;20535;-79
2022/02/26 00:28:35;;;;;;;9.47;2.90;;;;;;;;;;5000706;28;20447;-79
2022/02/26 00:31:02;;;;;;;7.77;2.97;;;;;;;;;;5000175;28;20824;-80
2022/02/26 00:33:28;;;;;;;6.57;2.60;;;;;;;;;;5015198;28;20452;-79
2022/02/26 00:35:58;;;;;;;4.53;2.27;;;;;;;;;;5015189;28;20544;-78
2022/02/26 00:38:24;;;;;;;11.90;2.80;;;;;;;;;;4999924;28;20389;-79
2022/02/26 00:40:51;;;;;;;9.20;2.40;;;;;;;;;;5000871;28;20415;-78
2022/02/26 00:43:17;;;;;;;8.87;3.03;;;;;;;;;;5014851;28;20419;-79
2022/02/26 00:45:43;;;;;;;8.70;2.93;;;;;;;;;;4999604;28;20475;-78
2022/02/26 00:48:10;;;;;;;13.07;3.70;;;;;;;;;;4998093;28;20454;-79
2022/02/26 00:50:36;;;;;;;6.30;3.37;;;;;;;;;;5000592;28;20401;-78
2022/02/26 00:53:03;;;;;;;8.00;4.00;;;;;;;;;;5014737;28;20495;-78
2022/02/26 00:55:29;;;;;;;6.27;3.30;;;;;;;;;;5001561;28;20508;-78
2022/02/26 00:57:55;;;;;;;9.70;3.07;;;;;;;;;;5002017;28;20416;-77
2022/02/26 01:00:21;;;;;;;10.23;3.30;;;;;;;;;;5001057;28;20547;-79
2022/02/26 01:02:47;;;;;;;10.03;3.70;;;;;;;;;;4999489;28;20416;-77
2022/02/26 01:05:14;;;;;;;5.57;3.57;;;;;;;;;;4999259;28;20507;-77
2022/02/26 01:07:40;;;;;;;7.17;3.10;;;;;;;;;;5015351;28;20412;-78
2022/02/26 01:10:06;;;;;;;8.17;3.20;;;;;;;;;;4998715;28;20409;-78
2022/02/26 01:12:32;;;;;;;6.53;3.40;;;;;;;;;;4998981;28;20487;-77
2022/02/26 01:14:59;;;;;;;7.50;3.27;;;;;;;;;;4999479;28;20780;-79
2022/02/26 01:17:25;;;;;;;10.50;3.97;;;;;;;;;;5000109;28;20412;-78
2022/02/26 01:19:51;;;;;;;7.83;3.40;;;;;;;;;;5014646;28;20780;-79
2022/02/26 01:22:18;;;;;;;8.83;3.27;;;;;;;;;;5000228;28;20478;-78
2022/02/26 01:24:44;;;;;;;8.80;3.67;;;;;;;;;;5014417;28;20414;-79
2022/02/26 01:27:10;;;;;;;9.30;3.50;;;;;;;;;;4999495;28;20412;-79
2022/02/26 01:29:36;;;;;;;7.73;4.00;;;;;;;;;;4999931;28;20432;-79
2022/02/26 01:32:03;;;;;;;6.43;3.87;;;;;;;;;;4999695;28;20419;-79
2022/02/26 01:34:29;;;;;;;8.80;3.10;;;;;;;;;;5000486;28;20466;-79
2022/02/26 01:36:55;;;;;;;10.63;3.57;;;;;;;;;;5014318;28;20439;-79
2022/02/26 01:39:24;;;;;;;6.90;3.60;;;;;;;;;;5014350;28;20919;-79
2022/02/26 01:41:51;;;;;;;5.30;2.93;;;;;;;;;;5014664;28;20409;-79
2022/02/26 01:44:17;;;;;;;6.27;4.33;;;;;;;;;;5000229;28;20508;-79
2022/02/26 01:46:43;;;;;;;6.47;3.43;;;;;;;;;;4999301;28;20869;-79
2022/02/26 01:49:09;;;;;;;13.27;3.87;;;;;;;;;;4999161;28;20419;-79
2022/02/26 01:51:36;;;;;;;5.27;2.80;;;;;;;;;;5014683;28;20416;-79
2022/02/26 01:54:03;;;;;;;4.87;3.67;;;;;;;;;;5013983;28;20452;-78
2022/02/26 01:56:29;;;;;;;9.20;3.03;;;;;;;;;;4999942;28;20483;-79
2022/02/26 01:58:55;;;;;;;7.40;3.10;;;;;;;;;;4999595;28;20467;-79
2022/02/26 02:01:21;;;;;;;5.73;3.50;;;;;;;;;;4998493;28;20931;-78
2022/02/26 02:03:47;;;;;;;12.33;4.50;;;;;;;;;;4997999;28;20908;-78
2022/02/26 02:06:14;;;;;;;5.50;3.40;;;;;;;;;;4998818;28;20812;-78
2022/02/26 02:08:42;;;;;;;9.83;4.00;;;;;;;;;;5001254;28;20419;-77
2022/02/26 02:11:08;;;;;;;4.50;2.77;;;;;;;;;;5018158;28;20409;-78
2022/02/26 02:13:34;;;;;;;5.40;3.37;;;;;;;;;;5013786;28;20546;-78
2022/02/26 02:16:00;;;;;;;7.10;4.00;;;;;;;;;;5000312;28;20800;-78
2022/02/26 02:18:27;;;;;;;9.43;4.43;;;;;;;;;;5016344;28;20435;-78
2022/02/26 02:20:53;;;;;;;10.97;3.70;;;;;;;;;;4999837;28;20454;-77
2022/02/26 02:23:19;;;;;;;6.23;3.20;;;;;;;;;;5013778;28;20435;-78
2022/02/26 02:25:46;;;;;;;7.50;3.03;;;;;;;;;;4999869;28;20431;-78
2022/02/26 02:28:12;;;;;;;5.47;3.73;;;;;;;;;;4999721;28;20412;-78
2022/02/26 02:30:38;;;;;;;7.20;3.10;;;;;;;;;;5014280;28;20412;-78
2022/02/26 02:33:05;;;;;;;5.60;3.40;;;;;;;;;;5014950;28;20463;-78
2022/02/26 02:35:31;;;;;;;7.40;3.53;;;;;;;;;;5015152;28;20435;-78
2022/02/26 02:37:58;;;;;;;5.83;2.90;;;;;;;;;;5000190;28;20415;-78
2022/02/26 02:40:25;;;;;;;6.37;3.10;;;;;;;;;;5015091;28;20428;-78
2022/02/26 02:42:52;;;;;;;7.70;2.80;;;;;;;;;;4999900;28;20409;-78
2022/02/26 02:47:52;;;;;;;4.07;2.80;;;;;;;;;;5019246;28;20459;-78
2022/02/26 02:50:19;;;;;;;6.20;2.60;;;;;;;;;;5007643;28;20419;-77
2022/02/26 02:52:46;;;;;;;9.73;3.07;;;;;;;;;;5003602;28;20817;-78
2022/02/26 02:55:14;;;;;;;10.87;3.37;;;;;;;;;;5004389;28;20408;-78
2022/02/26 02:57:41;;;;;;;3.50;2.60;;;;;;;;;;5006594;28;20451;-77
2022/02/26 03:00:07;;;;;;;6.70;2.63;;;;;;;;;;5005441;28;20916;-78
2022/02/26 03:02:34;;;;;;;4.17;2.53;;;;;;;;;;4997996;28;20412;-78
2022/02/26 03:05:00;;;;;;;8.07;2.90;;;;;;;;;;4997216;28;20416;-77
2022/02/26 03:07:26;;;;;;;5.50;2.40;;;;;;;;;;4997088;28;20781;-78
2022/02/26 03:09:52;;;;;;;4.67;3.07;;;;;;;;;;4997977;28;20444;-78
2022/02/26 03:12:19;;;;;;;3.93;2.37;;;;;;;;;;4998253;28;20466;-78
2022/02/26 03:14:45;;;;;;;2.80;2.03;;;;;;;;;;4998387;28;20415;-78
2022/02/26 03:17:11;;;;;;;4.27;2.60;;;;;;;;;;4996907;28;20431;-78
2022/02/26 03:19:37;;;;;;;4.83;2.93;;;;;;;;;;4997447;28;20415;-78
2022/02/26 03:22:04;;;;;;;3.70;2.47;;;;;;;;;;4996777;28;20412;-78
2022/02/26 03:24:30;;;;;;;5.83;3.00;;;;;;;;;;4996339;28;20415;-78
2022/02/26 03:26:57;;;;;;;5.80;2.73;;;;;;;;;;4995674;28;20464;-78
2022/02/26 03:29:29;;;;;;;6.23;2.70;;;;;;;;;;4996316;28;20776;-78
2022/02/26 03:31:55;;;;;;;6.30;2.97;;;;;;;;;;4996386;28;20482;-78
2022/02/26 03:34:22;;;;;;;10.53;2.50;;;;;;;;;;4996067;28;20876;-78
2022/02/26 03:36:53;;;;;;;4.73;2.90;;;;;;;;;;4996127;28;20535;-77
2022/02/26 03:39:19;;;;;;;5.90;2.90;;;;;;;;;;4996611;28;20409;-77
2022/02/26 03:41:46;;;;;;;7.00;3.30;;;;;;;;;;4997028;28;20408;-77
2022/02/26 03:44:13;;;;;;;4.73;2.87;;;;;;;;;;4996516;28;20471;-77
2022/02/26 03:46:39;;;;;;;5.23;2.73;;;;;;;;;;4996239;28;20444;-77
2022/02/26 03:49:06;;;;;;;5.80;3.53;;;;;;;;;;4996696;28;20439;-77
2022/02/26 03:51:33;;;;;;;7.00;3.60;;;;;;;;;;4996322;28;20408;-77
2022/02/26 03:53:59;;;;;;;5.40;3.60;;;;;;;;;;4996106;28;20857;-78
2022/02/26 03:56:27;;;;;;;8.27;3.50;;;;;;;;;;4994743;28;20439;-77
2022/02/26 03:58:53;;;;;;;6.87;2.97;;;;;;;;;;4995983;28;20401;-77
2022/02/26 04:01:19;;;;;;;7.90;3.40;;;;;;;;;;4996376;28;20879;-78
2022/02/26 04:03:45;;;;;;;8.50;3.77;;;;;;;;;;4995457;28;20408;-77
2022/02/26 04:06:12;;;;;;;5.43;3.80;;;;;;;;;;4995600;28;20491;-77
2022/02/26 04:08:38;;;;;;;5.60;3.37;;;;;;;;;;4994452;28;20508;-79
2022/02/26 04:11:05;;;;;;;6.53;3.27;;;;;;;;;;4995930;28;20415;-78
2022/02/26 04:13:31;;;;;;;7.80;4.03;;;;;;;;;;4996093;28;20448;-77
2022/02/26 04:15:57;;;;;;;6.70;3.57;;;;;;;;;;4996236;28;20428;-77
2022/02/26 04:18:23;;;;;;;8.00;3.40;;;;;;;;;;4994317;28;20782;-78
2022/02/26 04:20:49;;;;;;;6.63;3.40;;;;;;;;;;4996129;28;20455;-77
2022/02/26 04:23:15;;;;;;;6.33;3.90;;;;;;;;;;4995743;28;20407;-77
2022/02/26 04:25:41;;;;;;;7.80;4.07;;;;;;;;;;4995243;28;20431;-77
2022/02/26 04:28:07;;;;;;;8.37;3.73;;;;;;;;;;4995109;28;20457;-78
2022/02/26 04:30:35;;;;;;;5.50;3.70;;;;;;;;;;5006391;28;20524;-77
2022/02/26 04:33:01;;;;;;;8.20;3.77;;;;;;;;;;5014878;28;20526;-77
2022/02/26 04:35:27;;;;;;;4.80;3.53;;;;;;;;;;5013148;28;20435;-77
2022/02/26 04:37:53;;;;;;;9.67;5.23;;;;;;;;;;5015471;28;20395;-78
2022/02/26 04:40:19;;;;;;;6.90;3.60;;;;;;;;;;5015026;28;20399;-78
2022/02/26 04:42:45;;;;;;;6.17;3.90;;;;;;;;;;5015399;28;20412;-77
2022/02/26 04:45:12;;;;;;;6.43;4.23;;;;;;;;;;5021113;28;20479;-77
2022/02/26 04:47:39;;;;;;;17.53;4.60;;;;;;;;;;5023438;28;20443;-77
2022/02/26 04:50:06;;;;;;;7.40;4.20;;;;;;;;;;5023505;28;20411;-77
2022/02/26 04:52:32;;;;;;;6.93;5.03;;;;;;;;;;5023337;28;20445;-78
2022/02/26 04:54:58;;;;;;;5.17;3.80;;;;;;;;;;5022729;28;20458;-79
2022/02/26 04:57:24;;;;;;;8.50;3.77;;;;;;;;;;5017768;28;20940;-79
2022/02/26 04:59:50;;;;;;;5.90;4.20;;;;;;;;;;5019383;28;20899;-79
2022/02/26 05:02:16;;;;;;;8.60;3.70;;;;;;;;;;5018775;28;20411;-79
2022/02/26 05:04:42;;;;;;;5.90;3.93;;;;;;;;;;5018887;28;20411;-78
2022/02/26 05:07:08;;;;;;;7.00;3.77;;;;;;;;;;5019799;28;20514;-79
2022/02/26 05:09:35;;;;;;;8.13;4.80;;;;;;;;;;5019316;28;20768;-79
2022/02/26 05:12:01;;;;;;;5.80;4.37;;;;;;;;;;5019069;28;20404;-79
2022/02/26 05:14:27;;;;;;;8.07;4.27;;;;;;;;;;5018583;28;20466;-79
2022/02/26 05:16:53;;;;;;;16.00;4.70;;;;;;;;;;5004649;28;20452;-79
2022/02/26 05:19:19;;;;;;;7.70;3.80;;;;;;;;;;5018447;28;20431;-79
2022/02/26 05:21:45;;;;;;;7.30;4.80;;;;;;;;;;5017797;28;20789;-79
2022/02/26 05:24:11;;;;;;;7.43;3.80;;;;;;;;;;5019421;28;20432;-79
2022/02/26 05:26:37;;;;;;;7.10;4.57;;;;;;;;;;5017747;28;20864;-79
2022/02/26 05:29:03;;;;;;;6.47;4.00;;;;;;;;;;5019888;28;20979;-79
2022/02/26 05:31:29;;;;;;;10.50;3.73;;;;;;;;;;5021768;28;20402;-79
2022/02/26 05:33:55;;;;;;;7.03;4.33;;;;;;;;;;5021905;28;20489;-78
2022/02/26 05:36:21;;;;;;;6.97;3.40;;;;;;;;;;5018991;28;20420;-79
2022/02/26 05:38:47;;;;;;;7.67;4.77;;;;;;;;;;5019278;28;20391;-79
2022/02/26 05:41:13;;;;;;;5.47;3.80;;;;;;;;;;5020824;28;20462;-79
2022/02/26 05:43:39;;;;;;;8.50;3.67;;;;;;;;;;5023897;28;20410;-79
2022/02/26 05:46:06;;;;;;;7.70;4.30;;;;;;;;;;5022652;28;20453;-80
2022/02/26 05:48:32;;;;;;;8.53;3.80;;;;;;;;;;5016740;28;20762;-79
2022/02/26 05:50:58;;;;;;;6.60;3.97;;;;;;;;;;5019999;28;20415;-79
2022/02/26 05:53:24;;;;;;;8.47;3.33;;;;;;;;;;5023928;28;20813;-79
2022/02/26 05:55:50;;;;;;;8.13;4.00;;;;;;;;;;5022975;28;20922;-79
2022/02/26 05:58:16;;;;;;;5.90;3.30;;;;;;;;;;5022572;28;20407;-79
2022/02/26 06:00:42;;;;;;;6.97;4.00;;;;;;;;;;5024342;28;20445;-79
2022/02/26 06:03:08;;;;;;;4.50;3.53;;;;;;;;;;5023585;28;20422;-79
2022/02/26 06:05:34;;;;;;;7.27;4.23;;;;;;;;;;5022967;28;20774;-79
2022/02/26 06:08:00;;;;;;;7.83;3.63;;;;;;;;;;5023022;28;20407;-79
2022/02/26 06:10:26;;;;;;;8.23;3.50;;;;;;;;;;5022294;28;20899;-79
2022/02/26 06:12:52;;;;;;;8.87;4.17;;;;;;;;;;5021950;28;20443;-79
2022/02/26 06:15:18;;;;;;;10.20;4.13;;;;;;;;;;5022345;28;20407;-79
2022/02/26 06:17:44;;;;;;;4.33;3.57;;;;;;;;;;5020695;28;20454;-78
2022/02/26 06:20:12;;;;;;;5.00;3.60;;;;;;;;;;5017494;28;20403;-78
2022/02/26 06:22:38;;;;;;;5.87;4.10;;;;;;;;;;5019183;28;20429;-78
2022/02/26 06:25:05;;;;;;;8.50;4.50;;;;;;;;;;5018704;28;20403;-78
2022/02/26 06:27:34;;;;;;;6.23;3.83;;;;;;;;;;5017756;28;20420;-79
2022/02/26 06:30:00;;;;;;;10.47;4.03;;;;;;;;;;5017890;28;20850;-78
2022/02/26 06:32:26;;;;;;;8.50;4.00;;;;;;;;;;5018031;28;20911;-78
2022/02/26 06:34:52;;;;;;;5.20;4.23;;;;;;;;;;5018155;28;20400;-78
2022/02/26 06:37:18;;;;;;;7.30;4.37;;;;;;;;;;5016390;28;20463;-77
2022/02/26 06:39:44;;;;;;;6.60;3.73;;;;;;;;;;5016370;28;20412;-78
2022/02/26 06:42:10;;;;;;;10.63;4.63;;;;;;;;;;5017334;28;20506;-79
2022/02/26 06:44:37;;;;;;;7.50;3.83;;;;;;;;;;5016454;28;20918;-77
2022/02/26 06:47:03;;;;;;;8.73;4.63;;;;;;;;;;5016911;28;20936;-78
2022/02/26 06:49:29;;;;;;;5.77;4.17;;;;;;;;;;5016479;28;20403;-79
2022/02/26 06:51:55;;;;;;;7.20;4.20;;;;;;;;;;5016207;28;20415;-77
2022/02/26 06:54:22;;;;;;;8.23;4.47;;;;;;;;;;5016837;28;20443;-78
2022/02/26 06:56:49;;;;;;;12.23;5.17;;;;;;;;;;5016798;28;20435;-77
2022/02/26 06:59:15;;;;;;;7.43;4.83;;;;;;;;;;5016786;28;20403;-77
2022/02/26 07:01:45;;;;;;;7.47;4.23;;;;;;;;;;5016265;28;20480;-78
2022/02/26 07:04:11;;;;;;;5.93;4.23;;;;;;;;;;5016818;28;20415;-77
2022/02/26 07:06:42;;;;;;;6.77;4.13;;;;;;;;;;5016852;28;20434;-77
2022/02/26 07:09:08;;;;;;;12.93;4.70;;;;;;;;;;5015482;28;20411;-78
2022/02/26 07:11:34;;;;;;;7.70;3.83;;;;;;;;;;5016626;28;20914;-77
2022/02/26 07:14:00;;;;;;;8.50;5.30;;;;;;;;;;5016962;28;20931;-77
2022/02/26 07:16:27;;;;;;;8.80;4.50;;;;;;;;;;5016425;28;20423;-78
2022/02/26 07:18:53;;;;;;;9.77;4.87;;;;;;;;;;5016199;28;20453;-78
2022/02/26 07:21:19;;;;;;;8.60;4.90;;;;;;;;;;5016946;28;20444;-77
2022/02/26 07:23:45;;;;;;;8.30;4.87;;;;;;;;;;5015767;28;20408;-78
2022/02/26 07:26:11;;;;;;;15.10;6.00;;;;;;;;;;5017085;28;20459;-77
2022/02/26 07:28:37;;;;;;;10.70;5.63;;;;;;;;;;5015958;28;20427;-79
2022/02/26 07:31:03;;;;;;;10.27;5.33;;;;;;;;;;5021215;28;20403;-79
2022/02/26 07:33:29;;;;;;;6.83;5.43;;;;;;;;;;5021756;28;20517;-79
2022/02/26 07:35:55;;;;;;;9.93;4.87;;;;;;;;;;5021423;28;20431;-78
2022/02/26 07:38:21;;;;;;;10.10;4.73;;;;;;;;;;5021716;28;20395;-78
2022/02/26 07:40:47;;;;;;;9.80;4.57;;;;;;;;;;5021321;28;20427;-78
2022/02/26 07:43:13;;;;;;;12.87;4.77;;;;;;;;;;5021616;28;20771;-78
2022/02/26 07:45:39;;;;;;;8.80;5.47;;;;;;;;;;5019788;28;20950;-78
2022/02/26 07:48:06;;;;;;;6.70;4.43;;;;;;;;;;5021972;28;20403;-78
2022/02/26 07:50:32;;;;;;;7.17;4.80;;;;;;;;;;5020354;28;20415;-78
2022/02/26 07:52:58;;;;;;;9.60;4.93;;;;;;;;;;5020871;28;20449;-78
2022/02/26 07:55:24;;;;;;;7.17;4.03;;;;;;;;;;5020372;28;20419;-78
2022/02/26 07:57:51;;;;;;;12.77;5.27;;;;;;;;;;5020535;28;20412;-78
2022/02/26 08:00:17;;;;;;;7.83;4.17;;;;;;;;;;5020901;28;20436;-79
2022/02/26 08:02:44;;;;;;;7.40;4.20;;;;;;;;;;5020582;28;20437;-79
2022/02/26 08:05:10;;;;;;;9.60;4.27;;;;;;;;;;5020981;28;20408;-78
2022/02/26 08:07:36;;;;;;;9.90;4.23;;;;;;;;;;5021023;28;20510;-78
2022/02/26 08:10:02;;;;;;;14.93;4.60;;;;;;;;;;5020644;28;20431;-79
2022/02/26 08:12:29;;;;;;;8.27;4.57;;;;;;;;;;5019754;28;20403;-78
2022/02/26 08:14:55;;;;;;;7.70;4.40;;;;;;;;;;5020126;28;20414;-78
2022/02/26 08:17:21;;;;;;;8.20;5.00;;;;;;;;;;5019283;28;20444;-78
2022/02/26 08:19:47;;;;;;;7.80;5.43;;;;;;;;;;5018911;28;20399;-78
2022/02/26 08:22:13;;;;;;;15.77;5.17;;;;;;;;;;5019888;28;20412;-78
2022/02/26 08:24:39;;;;;;;9.57;5.13;;;;;;;;;;5016810;28;20493;-78
2022/02/26 08:27:05;;;;;;;13.23;6.30;;;;;;;;;;5017189;28;20436;-78
2022/02/26 08:29:32;;;;;;;16.97;6.20;;;;;;;;;;5015519;28;20462;-78
2022/02/26 08:31:58;;;;;;;9.27;5.50;;;;;;;;;;5016015;28;20461;-78
2022/02/26 08:34:24;;;;;;;10.63;6.10;;;;;;;;;;5016228;28;20462;-78
2022/02/26 08:36:50;;;;;;;12.70;6.07;;;;;;;;;;5016488;28;20407;-78
2022/02/26 08:39:17;;;;;;;9.20;6.90;;;;;;;;;;5015072;28;20176;-77
2022/02/26 08:41:43;;;;;;;11.52;6.03;;;;;;;;;;5014156;28;20899;-77
2022/02/26 08:44:09;;;;;;;13.73;6.13;;;;;;;;;;5015494;28;20180;-77
2022/02/26 08:46:36;;;;;;;11.70;6.22;;;;;;;;;;5015907;28;20457;-77
2022/02/26 08:49:02;;;;;;;10.67;6.13;;;;;;;;;;5017629;28;20175;-78
2022/02/26 08:51:28;;;;;;;11.20;6.23;;;;;;;;;;5018415;28;20518;-78
2022/02/26 08:53:54;;;;;;;14.23;6.17;;;;;;;;;;5019148;28;20454;-77
2022/02/26 08:56:23;;;;;;;8.00;4.90;;;;;;;;;;5028183;28;20451;-78
2022/02/26 08:58:53;;;;;;;8.20;5.73;;;;;;;;;;4997521;28;20400;-79
2022/02/26 09:01:19;;;;;;;12.60;5.40;;;;;;;;;;4997190;28;20468;-78
2022/02/26 09:03:46;;;;;;;17.43;4.70;;;;;;;;;;4998344;28;20400;-78
2022/02/26 09:06:12;;;;;;;7.37;3.87;;;;;;;;;;4995854;28;20490;-78
2022/02/26 09:08:38;;;;;;;10.40;5.43;;;;;;;;;;4997168;28;20400;-78
2022/02/26 09:11:07;;;;;;;9.97;4.90;;;;;;;;;;4996327;28;20439;-78
2022/02/26 09:13:37;;;;;;;11.50;4.40;;;;;;;;;;4995801;28;20805;-78
2022/02/26 09:16:03;;;;;;;10.67;5.07;;;;;;;;;;4994944;28;20428;-78
2022/02/26 09:18:29;;;;;;;9.77;4.10;;;;;;;;;;5001196;28;20416;-78
2022/02/26 09:20:56;;;;;;;10.93;4.13;;;;;;;;;;4999006;28;20542;-78
2022/02/26 09:23:22;;;;;;;10.17;3.87;;;;;;;;;;4997443;28;20401;-78
2022/02/26 09:25:48;;;;;;;12.05;4.40;;;;;;;;;;4998021;28;20412;-78
2022/02/26 09:28:14;;;;;;;8.87;4.57;;;;;;;;;;4997415;28;20169;-78
2022/02/26 09:30:41;;;;;;;9.27;4.00;;;;;;;;;;4995636;28;20416;-78
2022/02/26 09:33:07;;;;;;;7.93;3.60;;;;;;;;;;4999710;28;20447;-79
2022/02/26 09:35:33;;;;;;;8.70;4.87;;;;;;;;;;5017177;28;20499;-78
2022/02/26 09:37:59;;;;;;;13.93;5.00;;;;;;;;;;5017495;28;20399;-78
2022/02/26 09:40:25;;;;;;;9.97;4.53;;;;;;;;;;5017220;28;20746;-78
2022/02/26 09:42:52;;;;;;;11.33;4.87;;;;;;;;;;5017119;28;20412;-79
2022/02/26 09:45:18;;;;;;;5.23;3.47;;;;;;;;;;5015745;28;20946;-79
2022/02/26 09:47:44;;;;;;;9.30;3.67;;;;;;;;;;5017548;28;20423;-78
2022/02/26 09:50:10;;;;;;;12.13;3.80;;;;;;;;;;5016768;28;20417;-79
2022/02/26 09:52:42;;;;;;;10.63;4.70;;;;;;;;;;5018387;28;20200;-79
2022/02/26 09:55:08;;;;;;;9.47;4.17;;;;;;;;;;5016692;28;20439;-78
2022/02/26 09:57:35;;;;;;;10.10;4.07;;;;;;;;;;5016036;28;20500;-78
2022/02/26 10:00:01;;;;;;;12.70;4.10;;;;;;;;;;5019339;28;20457;-78
2022/02/26 10:02:31;;;;;;;8.47;4.13;;;;;;;;;;5025571;28;20475;-77
2022/02/26 10:04:58;;;;;;;9.73;3.58;;;;;;;;;;5013510;28;20406;-78
2022/02/26 10:07:26;;;;;;;13.40;3.78;;;;;;;;;;5014225;28;20399;-79
2022/02/26 10:09:53;;;;;;;7.77;3.20;;;;;;;;;;5014669;28;20173;-78
2022/02/26 10:12:28;;;;;;;10.38;3.33;;;;;;;;;;5016289;28;20761;-77
2022/02/26 10:14:55;;;;;;;11.70;2.93;;;;;;;;;;5014920;28;20206;-78
2022/02/26 10:17:29;;;;;;;7.05;2.40;;;;;;;;;;5022752;28;20402;-78
2022/02/26 10:20:15;;;;;;;8.90;2.67;;;;;;;;;;5027348;28;20408;-78
2022/02/26 10:22:43;;;;;;;4.83;3.30;;;;;;;;;;5022071;28;20271;-79
2022/02/26 10:25:13;;;;;;;8.40;2.70;;;;;;;;;;5033852;28;20399;-78
2022/02/26 10:27:41;;;;;;;6.33;2.93;;;;;;;;;;5036644;28;20424;-78
2022/02/26 10:30:08;;;;;;;6.77;3.23;;;;;;;;;;5038088;28;20399;-78
2022/02/26 10:32:34;;;;;;;7.33;2.60;;;;;;;;;;5037050;28;20410;-78
2022/02/26 10:35:01;;;;;;;10.40;3.23;;;;;;;;;;5037889;28;20472;-77
2022/02/26 10:37:27;;;;;;;6.97;3.03;;;;;;;;;;5035055;28;20473;-78
2022/02/26 10:39:55;;;;;;;6.00;2.93;;;;;;;;;;5018560;28;20164;-78
2022/02/26 10:42:25;;;;;;;5.55;2.35;;;;;;;;;;5017597;28;20406;-78
2022/02/26 10:45:09;;;;;;;5.07;2.20;;;;;;;;;;5017696;28;20164;-78
2022/02/26 10:47:37;;;;;;;4.97;1.90;;;;;;;;;;5017373;28;20415;-78
2022/02/26 10:50:16;;;;;;;32.67;4.10;;;;;;;;;;5018049;28;20240;-78
2022/02/26 10:52:54;;;;;;;5.57;2.13;;;;;;;;;;5016972;28;20457;-78
2022/02/26 10:55:20;;;;;;;5.70;2.90;;;;;;;;;;5018873;28;20387;-78
2022/02/26 10:57:46;;;;;;;11.50;2.23;;;;;;;;;;5018551;28;20499;-78
2022/02/26 11:00:12;;;;;;;6.60;3.00;;;;;;;;;;5027655;28;20396;-77
2022/02/26 11:02:38;;;;;;;4.45;1.80;;;;;;;;;;5019881;28;20415;-78
2022/02/26 11:05:06;;;;;;;7.72;2.00;;;;;;;;;;5019215;28;20407;-78
2022/02/26 11:07:32;;;;;;;7.57;2.00;;;;;;;;;;5029086;28;20921;-78
2022/02/26 11:09:59;;;;;;;6.65;2.20;;;;;;;;;;5019755;28;20415;-78
2022/02/26 11:12:27;;;;;;;7.03;2.00;;;;;;;;;;5017701;28;20411;-78
2022/02/26 11:15:01;;;;;;;6.77;1.77;;;;;;;;;;5019439;28;20230;-79
2022/02/26 11:17:28;;;;;;;9.60;2.70;;;;;;;;;;5019363;28;20424;-78
2022/02/26 11:20:00;;;;;;;4.90;1.90;;;;;;;;;;5018784;28;20395;-78
2022/02/26 11:22:26;;;;;;;6.07;2.03;;;;;;;;;;5018570;28;20419;-78
2022/02/26 11:24:54;;;;;;;6.43;2.30;;;;;;;;;;5018357;28;20407;-77
2022/02/26 11:27:21;;;;;;;6.15;2.00;;;;;;;;;;5019381;28;20439;-78
2022/02/26 11:29:47;;;;;;;5.82;1.90;;;;;;;;;;5018698;28;20753;-79
2022/02/26 11:32:15;;;;;;;9.90;2.53;;;;;;;;;;5017656;28;20403;-78
2022/02/26 11:34:42;;;;;;;5.53;2.10;;;;;;;;;;5019425;28;20547;-78
2022/02/26 11:37:09;;;;;;;5.17;1.70;;;;;;;;;;5030876;28;20543;-78
2022/02/26 11:39:37;;;;;;;6.40;2.13;;;;;;;;;;5030733;28;20521;-78
2022/02/26 11:42:26;;;;;;;5.60;1.60;;;;;;;;;;5029321;28;20418;-78
2022/02/26 11:44:53;;;;;;;6.75;1.88;;;;;;;;;;5028785;28;20970;-77
2022/02/26 11:47:20;;;;;;;9.40;2.60;;;;;;;;;;5021347;28;20234;-78
2022/02/26 11:49:56;;;;;;;6.00;2.00;;;;;;;;;;5018511;28;20427;-79
2022/02/26 11:52:58;;;;;;;6.70;1.70;;;;;;;;;;5019489;28;20426;-79
2022/02/26 11:55:39;;;;;;;3.50;2.00;;;;;;;;;;4980240;28;20681;-79
2022/02/26 11:58:11;;;;;;;3.13;1.53;;;;;;;;;;5017355;28;20416;-79
2022/02/26 12:00:43;;;;;;;7.50;2.70;;;;;;;;;;5022337;28;20415;-79
2022/02/26 12:03:27;;;;;;;6.10;2.47;;;;;;;;;;5025948;28;20403;-79
2022/02/26 12:05:55;;;;;;;2.77;1.83;;;;;;;;;;5021156;28;20427;-78
2022/02/26 12:08:35;;;;;;;6.43;2.13;;;;;;;;;;5024641;28;20404;-79
2022/02/26 12:11:01;;;;;;;3.43;1.70;;;;;;;;;;5020343;28;20411;-79
2022/02/26 12:13:32;;;;;;;3.43;1.90;;;;;;;;;;5021013;28;20545;-78
2022/02/26 12:16:17;;;;;;;4.97;1.90;;;;;;;;;;5017811;28;20424;-78
2022/02/26 12:19:03;;;;;;;5.80;2.10;;;;;;;;;;5017337;28;20414;-78
2022/02/26 12:21:37;;;;;;;5.27;1.87;;;;;;;;;;5011263;28;20900;-79
2022/02/26 12:24:07;;;;;;;4.83;1.77;;;;;;;;;;5017218;28;20926;-78
2022/02/26 12:26:52;;;;;;;5.50;2.10;;;;;;;;;;5020925;28;20490;-77
2022/02/26 12:29:30;;;;;;;4.65;1.80;;;;;;;;;;5025140;28;20418;-77
2022/02/26 12:32:16;;;;;;;4.57;2.00;;;;;;;;;;5025718;28;20801;-78
2022/02/26 12:34:48;;;;;;;5.07;1.95;;;;;;;;;;5022805;28;20453;-78
2022/02/26 12:37:18;;;;;;;3.87;1.53;;;;;;;;;;5022855;28;20223;-78
2022/02/26 12:39:47;;;;;;;5.50;1.70;;;;;;;;;;5026293;28;20440;-78
2022/02/26 12:42:18;;;;;;;5.20;1.73;;;;;;;;;;5022307;28;20400;-78
2022/02/26 12:44:44;;;;;;;4.23;1.90;;;;;;;;;;5016949;28;20498;-77
2022/02/26 12:47:12;;;;;;;4.13;1.83;;;;;;;;;;5019368;28;20444;-78
2022/02/26 12:49:38;;;;;;;3.73;2.27;;;;;;;;;;5020109;28;20411;-79
2022/02/26 12:52:05;;;;;;;5.17;2.43;;;;;;;;;;5017298;28;20542;-79
2022/02/26 12:54:34;;;;;;;6.10;2.10;;;;;;;;;;5020088;28;20865;-78
2022/02/26 12:57:01;;;;;;;8.03;2.10;;;;;;;;;;5020063;28;20514;-79
2022/02/26 12:59:29;;;;;;;6.13;1.80;;;;;;;;;;5019543;28;20475;-79
2022/02/26 13:01:55;;;;;;;6.07;2.00;;;;;;;;;;5019912;28;20411;-78
2022/02/26 13:04:28;;;;;;;5.23;1.90;;;;;;;;;;5021084;28;20407;-78
2022/02/26 13:06:56;;;;;;;3.20;1.83;;;;;;;;;;5018134;28;20509;-78
2022/02/26 13:09:23;;;;;;;10.70;5.13;;;;;;;;;;5021678;28;20458;-79
2022/02/26 13:11:50;;;;;;;6.53;2.23;;;;;;;;;;5019703;28;20427;-79
2022/02/26 13:14:18;;;;;;;4.93;1.60;;;;;;;;;;5031457;28;20450;-79
2022/02/26 13:16:59;;;;;;;3.90;1.80;;;;;;;;;;5045533;28;20437;-80
2022/02/26 13:19:26;;;;;;;10.30;4.00;;;;;;;;;;5033343;28;20476;-80
2022/02/26 13:21:52;;;;;;;10.60;1.93;;;;;;;;;;5022669;28;20764;-80
2022/02/26 13:24:18;;;;;;;4.33;1.80;;;;;;;;;;5023483;28;20420;-78
2022/02/26 13:26:44;;;;;;;10.97;4.27;;;;;;;;;;5019861;28;20455;-80
2022/02/26 13:29:13;;;;;;;6.80;2.00;;;;;;;;;;5039114;28;20405;-79
2022/02/26 13:31:40;;;;;;;6.70;2.10;;;;;;;;;;5038524;28;20902;-79
2022/02/26 13:34:19;;;;;;;7.20;2.50;;;;;;;;;;5038478;28;20472;-79
2022/02/26 13:36:46;;;;;;;5.65;2.10;;;;;;;;;;5038325;28;20401;-79
2022/02/26 13:39:12;;;;;;;2.53;1.87;;;;;;;;;;5038031;28;20163;-80
2022/02/26 13:41:39;;;;;;;5.23;2.30;;;;;;;;;;5036461;28;20407;-79
2022/02/26 13:44:09;;;;;;;4.80;1.83;;;;;;;;;;5038339;28;20402;-79
2022/02/26 13:47:27;;;;;;;3.10;1.57;;;;;;;;;;5036236;28;20526;-78
2022/02/26 13:49:30;;;;;;;4.43;2.00;;;;;;;;;;4996540;28;20416;-79
2022/02/26 13:51:56;;;;;;;4.40;1.70;;;;;;;;;;5003173;28;21029;-79
2022/02/26 13:54:23;;;;;;;6.03;1.97;;;;;;;;;;5016678;28;20447;-79
2022/02/26 13:56:55;;;;;;;4.43;1.73;;;;;;;;;;5017136;28;20415;-79
2022/02/26 13:59:26;;;;;;;4.23;2.67;;;;;;;;;;5017535;28;20430;-79
2022/02/26 14:01:52;;;;;;;5.40;1.80;;;;;;;;;;5025307;28;20515;-79
2022/02/26 14:04:20;;;;;;;4.70;1.87;;;;;;;;;;5020386;28;20430;-78
2022/02/26 14:06:47;;;;;;;6.87;2.40;;;;;;;;;;5020006;28;20434;-77
2022/02/26 14:09:23;;;;;;;2.83;1.50;;;;;;;;;;5018725;28;20411;-78
2022/02/26 14:12:02;;;;;;;6.23;1.57;;;;;;;;;;5018973;28;20788;-79
2022/02/26 14:14:28;;;;;;;8.23;2.10;;;;;;;;;;5019082;28;20446;-78
2022/02/26 14:17:06;;;;;;;7.87;2.27;;;;;;;;;;5021792;28;20447;-77
2022/02/26 14:19:32;;;;;;;5.37;2.03;;;;;;;;;;5016893;28;20785;-78
2022/02/26 14:21:59;;;;;;;13.07;2.57;;;;;;;;;;5016892;28;20417;-77
2022/02/26 14:24:26;;;;;;;3.27;1.70;;;;;;;;;;5031070;28;20414;-77
2022/02/26 14:26:56;;;;;;;3.43;1.70;;;;;;;;;;5027177;28;20435;-77
2022/02/26 14:29:32;;;;;;;7.17;2.20;;;;;;;;;;5017129;28;20427;-77
2022/02/26 14:31:59;;;;;;;4.57;2.33;;;;;;;;;;5013798;28;20511;-77
2022/02/26 14:34:25;;;;;;;4.20;2.07;;;;;;;;;;5017194;28;20788;-78
2022/02/26 14:36:52;;;;;;;6.70;2.57;;;;;;;;;;5018834;28;20903;-77
2022/02/26 14:39:23;;;;;;;12.40;1.83;;;;;;;;;;5020410;28;20522;-78
2022/02/26 14:41:50;;;;;;;4.87;1.90;;;;;;;;;;5017844;28;20434;-77
2022/02/26 14:44:17;;;;;;;3.50;1.80;;;;;;;;;;5035584;28;20910;-78
2022/02/26 14:46:43;;;;;;;4.53;1.40;;;;;;;;;;5029708;28;20490;-78